N370MK KJZI-KBWI
Flight info
| Callsign | N370MK |
|---|---|
| Flight time | 1h 17m |
| Altitude | 41000 |
| Route | RIC TAPPA/N0392F170 T224 COLIN/N0371F110 T224 SHLBK T291 GRACO |
| Aircraft | E55P/M-SBDFGHJ2RWY/LB2 |
Departure
| Time | 2026-04-26 20:20 |
|---|---|
| Airport | Charleston Executive Airport (KJZI) |
Arrival
| Time | 2026-04-26 21:38 |
|---|---|
| Airport | Baltimore/Washington International Thurgood Marshall Airport (KBWI) |
| Time | Latitude | Longitude | Altitude | Speed | Heading |
|---|---|---|---|---|---|
| 2026-04-26 19:52 | 32.69698 | -80.00854 | 16 ft | 0 kts | 0° |
| 2026-04-26 20:10 | 32.69708 | -80.00852 | 16 ft | 2 kts | 36° |
| 2026-04-26 20:10 | 32.69718 | -80.00826 | 16 ft | 5 kts | 47° |
| 2026-04-26 20:10 | 32.69761 | -80.00800 | 16 ft | 8 kts | 25° |
| 2026-04-26 20:10 | 32.69812 | -80.00768 | 16 ft | 8 kts | 36° |
| 2026-04-26 20:11 | 32.69869 | -80.00718 | 16 ft | 12 kts | 40° |
| 2026-04-26 20:11 | 32.69944 | -80.00686 | 16 ft | 11 kts | 0° |
| 2026-04-26 20:11 | 32.70042 | -80.00684 | 17 ft | 15 kts | 1° |
| 2026-04-26 20:12 | 32.70247 | -80.00687 | 17 ft | 13 kts | 359° |
| 2026-04-26 20:12 | 32.70333 | -80.00689 | 17 ft | 10 kts | 359° |
| 2026-04-26 20:12 | 32.70382 | -80.00730 | 17 ft | 10 kts | 270° |
| 2026-04-26 20:12 | 32.70381 | -80.00835 | 18 ft | 15 kts | 269° |
| 2026-04-26 20:13 | 32.70380 | -80.00985 | 19 ft | 19 kts | 269° |
| 2026-04-26 20:13 | 32.70377 | -80.01148 | 19 ft | 19 kts | 270° |
| 2026-04-26 20:13 | 32.70382 | -80.01269 | 20 ft | 7 kts | 308° |
| 2026-04-26 20:13 | 32.70407 | -80.01282 | 20 ft | 0 kts | 356° |
| 2026-04-26 20:19 | 32.70421 | -80.01283 | 20 ft | 5 kts | 357° |
| 2026-04-26 20:19 | 32.70476 | -80.01282 | 20 ft | 8 kts | 20° |
| 2026-04-26 20:19 | 32.70486 | -80.01258 | 20 ft | 0 kts | 89° |
| 2026-04-26 20:20 | 32.70488 | -80.00954 | 18 ft | 75 kts | 89° |
| 2026-04-26 20:20 | 32.70498 | -80.00076 | 18 ft | 134 kts | 88° |
| 2026-04-26 20:20 | 32.70478 | -79.98859 | 361 ft | 158 kts | 88° |
| 2026-04-26 20:20 | 32.70552 | -79.97488 | 863 ft | 179 kts | 77° |
| 2026-04-26 20:21 | 32.71081 | -79.96197 | 1559 ft | 181 kts | 42° |
| 2026-04-26 20:21 | 32.72247 | -79.95508 | 2056 ft | 200 kts | 16° |
| 2026-04-26 20:21 | 32.73631 | -79.94872 | 2275 ft | 234 kts | 23° |
| 2026-04-26 20:21 | 32.75227 | -79.94141 | 2793 ft | 251 kts | 23° |
| 2026-04-26 20:22 | 32.76796 | -79.93342 | 3753 ft | 249 kts | 23° |
| 2026-04-26 20:22 | 32.78392 | -79.92519 | 4634 ft | 250 kts | 23° |
| 2026-04-26 20:22 | 32.79987 | -79.91693 | 5414 ft | 255 kts | 23° |
| 2026-04-26 20:22 | 32.81608 | -79.90854 | 6179 ft | 260 kts | 23° |
| 2026-04-26 20:23 | 32.83271 | -79.89990 | 6965 ft | 263 kts | 22° |
| 2026-04-26 20:23 | 32.84948 | -79.89120 | 7760 ft | 266 kts | 22° |
| 2026-04-26 20:23 | 32.86640 | -79.88240 | 8540 ft | 270 kts | 22° |
| 2026-04-26 20:23 | 32.88384 | -79.87334 | 9326 ft | 273 kts | 21° |
| 2026-04-26 20:24 | 32.90104 | -79.86437 | 10076 ft | 277 kts | 21° |
| 2026-04-26 20:24 | 32.91907 | -79.85501 | 10575 ft | 291 kts | 21° |
| 2026-04-26 20:24 | 32.93861 | -79.84491 | 10634 ft | 320 kts | 21° |
| 2026-04-26 20:24 | 32.95923 | -79.83411 | 11205 ft | 327 kts | 21° |
| 2026-04-26 20:25 | 32.97992 | -79.82331 | 12023 ft | 326 kts | 21° |
| 2026-04-26 20:25 | 32.99399 | -79.81599 | 12524 ft | 328 kts | 20° |
| 2026-04-26 20:25 | 33.02196 | -79.80144 | 13367 ft | 335 kts | 20° |
| 2026-04-26 20:25 | 33.04335 | -79.79024 | 14044 ft | 338 kts | 20° |
| 2026-04-26 20:26 | 33.06484 | -79.77904 | 14799 ft | 338 kts | 20° |
| 2026-04-26 20:26 | 33.08644 | -79.76776 | 15529 ft | 339 kts | 20° |
| 2026-04-26 20:26 | 33.10788 | -79.75655 | 16183 ft | 341 kts | 20° |
| 2026-04-26 20:26 | 33.12967 | -79.74516 | 16794 ft | 345 kts | 20° |
| 2026-04-26 20:27 | 33.15184 | -79.73357 | 17425 ft | 347 kts | 20° |
| 2026-04-26 20:27 | 33.17401 | -79.72197 | 18050 ft | 349 kts | 19° |
| 2026-04-26 20:27 | 33.19630 | -79.71027 | 18588 ft | 352 kts | 19° |
| 2026-04-26 20:27 | 33.21901 | -79.69841 | 19081 ft | 358 kts | 19° |
| 2026-04-26 20:28 | 33.24201 | -79.68634 | 19582 ft | 362 kts | 19° |
| 2026-04-26 20:28 | 33.26514 | -79.67420 | 20116 ft | 365 kts | 19° |
| 2026-04-26 20:28 | 33.28830 | -79.66202 | 20591 ft | 369 kts | 18° |
| 2026-04-26 20:28 | 33.31208 | -79.64956 | 21101 ft | 372 kts | 18° |
| 2026-04-26 20:29 | 33.33553 | -79.63719 | 21669 ft | 373 kts | 18° |
| 2026-04-26 20:29 | 33.35934 | -79.62470 | 22280 ft | 372 kts | 18° |
| 2026-04-26 20:29 | 33.38297 | -79.61225 | 22891 ft | 371 kts | 18° |
| 2026-04-26 20:29 | 33.40666 | -79.59976 | 23478 ft | 371 kts | 17° |
| 2026-04-26 20:30 | 33.42995 | -79.58749 | 24093 ft | 369 kts | 17° |
| 2026-04-26 20:30 | 33.45362 | -79.57503 | 24705 ft | 368 kts | 17° |
| 2026-04-26 20:30 | 33.47700 | -79.56270 | 25271 ft | 367 kts | 17° |
| 2026-04-26 20:30 | 33.50014 | -79.55051 | 25845 ft | 367 kts | 17° |
| 2026-04-26 20:31 | 33.52369 | -79.53805 | 26434 ft | 365 kts | 16° |
| 2026-04-26 20:31 | 33.54679 | -79.52585 | 27024 ft | 363 kts | 16° |
| 2026-04-26 20:31 | 33.56959 | -79.51380 | 27556 ft | 363 kts | 16° |
| 2026-04-26 20:31 | 33.59297 | -79.50143 | 28058 ft | 363 kts | 16° |
| 2026-04-26 20:32 | 33.61583 | -79.48934 | 28606 ft | 362 kts | 16° |
| 2026-04-26 20:32 | 33.63884 | -79.47714 | 29131 ft | 361 kts | 15° |
| 2026-04-26 20:32 | 33.66169 | -79.46506 | 29572 ft | 362 kts | 16° |
| 2026-04-26 20:32 | 33.68486 | -79.45277 | 30050 ft | 362 kts | 15° |
| 2026-04-26 20:33 | 33.70784 | -79.44055 | 30569 ft | 360 kts | 15° |
| 2026-04-26 20:33 | 33.73058 | -79.42851 | 31106 ft | 358 kts | 15° |
| 2026-04-26 20:33 | 33.75312 | -79.41650 | 31623 ft | 355 kts | 15° |
| 2026-04-26 20:33 | 33.77587 | -79.40443 | 32125 ft | 353 kts | 15° |
| 2026-04-26 20:34 | 33.79794 | -79.39267 | 32605 ft | 351 kts | 15° |
| 2026-04-26 20:34 | 33.82029 | -79.38077 | 33095 ft | 349 kts | 15° |
| 2026-04-26 20:34 | 33.84254 | -79.36892 | 33613 ft | 346 kts | 14° |
| 2026-04-26 20:34 | 33.86421 | -79.35738 | 34067 ft | 344 kts | 14° |
| 2026-04-26 20:35 | 33.88613 | -79.34573 | 34450 ft | 344 kts | 15° |
| 2026-04-26 20:35 | 33.90816 | -79.33400 | 34785 ft | 345 kts | 15° |
| 2026-04-26 20:35 | 33.93002 | -79.32235 | 35143 ft | 345 kts | 15° |
| 2026-04-26 20:35 | 33.95203 | -79.31059 | 35542 ft | 343 kts | 15° |
| 2026-04-26 20:36 | 33.97378 | -79.29896 | 35882 ft | 343 kts | 15° |
| 2026-04-26 20:36 | 33.99561 | -79.28732 | 36234 ft | 342 kts | 15° |
| 2026-04-26 20:36 | 34.01728 | -79.27572 | 36523 ft | 343 kts | 15° |
| 2026-04-26 20:36 | 34.03904 | -79.26409 | 36830 ft | 343 kts | 15° |
| 2026-04-26 20:37 | 34.06084 | -79.25241 | 37138 ft | 343 kts | 15° |
| 2026-04-26 20:37 | 34.08268 | -79.24072 | 37406 ft | 343 kts | 15° |
| 2026-04-26 20:37 | 34.10455 | -79.22901 | 37692 ft | 343 kts | 16° |
| 2026-04-26 20:37 | 34.12640 | -79.21726 | 37978 ft | 343 kts | 16° |
| 2026-04-26 20:38 | 34.14822 | -79.20555 | 38247 ft | 344 kts | 16° |
| 2026-04-26 20:38 | 34.16991 | -79.19390 | 38504 ft | 344 kts | 16° |
| 2026-04-26 20:38 | 34.19199 | -79.18204 | 38792 ft | 343 kts | 16° |
| 2026-04-26 20:38 | 34.21354 | -79.17046 | 39026 ft | 343 kts | 16° |
| 2026-04-26 20:39 | 34.23528 | -79.15877 | 39313 ft | 342 kts | 16° |
| 2026-04-26 20:39 | 34.25726 | -79.14693 | 39560 ft | 342 kts | 16° |
| 2026-04-26 20:39 | 34.27874 | -79.13535 | 39787 ft | 342 kts | 16° |
| 2026-04-26 20:39 | 34.30053 | -79.12363 | 39991 ft | 343 kts | 16° |
| 2026-04-26 20:40 | 34.32226 | -79.11194 | 40205 ft | 343 kts | 16° |
| 2026-04-26 20:40 | 34.34405 | -79.10015 | 40380 ft | 343 kts | 16° |
| 2026-04-26 20:40 | 34.36590 | -79.08836 | 40560 ft | 344 kts | 16° |
| 2026-04-26 20:40 | 34.38775 | -79.07659 | 40770 ft | 343 kts | 17° |
| 2026-04-26 20:41 | 34.40979 | -79.06467 | 40965 ft | 344 kts | 17° |
| 2026-04-26 20:41 | 34.45389 | -79.04084 | 41006 ft | 351 kts | 17° |
| 2026-04-26 20:42 | 34.49859 | -79.01662 | 41017 ft | 354 kts | 17° |
| 2026-04-26 20:42 | 34.54390 | -78.99206 | 41016 ft | 358 kts | 17° |
| 2026-04-26 20:43 | 34.58952 | -78.96731 | 41018 ft | 361 kts | 17° |
| 2026-04-26 20:43 | 34.63549 | -78.94231 | 41021 ft | 365 kts | 17° |
| 2026-04-26 20:44 | 34.68180 | -78.91711 | 41023 ft | 368 kts | 17° |
| 2026-04-26 20:44 | 34.72872 | -78.89156 | 41020 ft | 371 kts | 17° |
| 2026-04-26 20:45 | 34.77590 | -78.86583 | 41026 ft | 373 kts | 18° |
| 2026-04-26 20:45 | 34.82350 | -78.83984 | 41025 ft | 376 kts | 18° |
| 2026-04-26 20:46 | 34.87162 | -78.81354 | 41023 ft | 379 kts | 18° |
| 2026-04-26 20:46 | 34.91955 | -78.78730 | 41027 ft | 381 kts | 18° |
| 2026-04-26 20:47 | 34.96799 | -78.76074 | 41030 ft | 383 kts | 18° |
| 2026-04-26 20:47 | 35.01694 | -78.73387 | 41034 ft | 386 kts | 18° |
| 2026-04-26 20:48 | 35.06576 | -78.70704 | 41038 ft | 388 kts | 18° |
| 2026-04-26 20:48 | 35.11518 | -78.67982 | 41034 ft | 391 kts | 18° |
| 2026-04-26 20:49 | 35.16506 | -78.65234 | 41025 ft | 393 kts | 18° |
| 2026-04-26 20:49 | 35.21489 | -78.62483 | 41029 ft | 395 kts | 18° |
| 2026-04-26 20:50 | 35.26514 | -78.59708 | 41032 ft | 397 kts | 18° |
| 2026-04-26 20:50 | 35.31592 | -78.56897 | 41031 ft | 400 kts | 18° |
| 2026-04-26 20:51 | 35.36656 | -78.54090 | 41038 ft | 401 kts | 18° |
| 2026-04-26 20:51 | 35.41772 | -78.51252 | 41041 ft | 403 kts | 18° |
| 2026-04-26 20:52 | 35.46882 | -78.48412 | 41039 ft | 405 kts | 18° |
| 2026-04-26 20:52 | 35.52037 | -78.45545 | 41043 ft | 407 kts | 19° |
| 2026-04-26 20:53 | 35.57191 | -78.42672 | 41045 ft | 408 kts | 19° |
| 2026-04-26 20:53 | 35.62355 | -78.39790 | 41043 ft | 410 kts | 19° |
| 2026-04-26 20:54 | 35.67565 | -78.36878 | 41049 ft | 411 kts | 19° |
| 2026-04-26 20:54 | 35.72796 | -78.33952 | 41039 ft | 413 kts | 19° |
| 2026-04-26 20:55 | 35.78003 | -78.31033 | 41048 ft | 413 kts | 19° |
| 2026-04-26 20:55 | 35.83248 | -78.28088 | 41043 ft | 414 kts | 19° |
| 2026-04-26 20:56 | 35.88468 | -78.25155 | 41045 ft | 414 kts | 19° |
| 2026-04-26 20:56 | 35.93730 | -78.22194 | 41051 ft | 415 kts | 20° |
| 2026-04-26 20:57 | 35.98987 | -78.19227 | 41054 ft | 415 kts | 19° |
| 2026-04-26 20:57 | 36.04212 | -78.16277 | 41063 ft | 416 kts | 20° |
| 2026-04-26 20:58 | 36.09483 | -78.13300 | 41057 ft | 417 kts | 19° |
| 2026-04-26 20:58 | 36.14771 | -78.10304 | 41058 ft | 417 kts | 20° |
| 2026-04-26 20:59 | 36.20037 | -78.07320 | 41059 ft | 418 kts | 19° |
| 2026-04-26 20:59 | 36.25341 | -78.04308 | 41073 ft | 419 kts | 20° |
| 2026-04-26 21:00 | 36.30624 | -78.01303 | 41068 ft | 420 kts | 20° |
| 2026-04-26 21:00 | 36.35947 | -77.98270 | 41070 ft | 421 kts | 20° |
| 2026-04-26 21:01 | 36.41273 | -77.95232 | 41081 ft | 422 kts | 20° |
| 2026-04-26 21:01 | 36.46617 | -77.92177 | 41073 ft | 422 kts | 20° |
| 2026-04-26 21:02 | 36.51940 | -77.89131 | 41090 ft | 423 kts | 20° |
| 2026-04-26 21:02 | 36.57297 | -77.86060 | 41082 ft | 423 kts | 20° |
| 2026-04-26 21:03 | 36.62629 | -77.83002 | 41091 ft | 424 kts | 20° |
| 2026-04-26 21:03 | 36.67981 | -77.79926 | 41095 ft | 425 kts | 20° |
| 2026-04-26 21:04 | 36.73342 | -77.76837 | 41113 ft | 425 kts | 20° |
| 2026-04-26 21:04 | 36.78735 | -77.73729 | 41115 ft | 426 kts | 20° |
| 2026-04-26 21:05 | 36.84123 | -77.70618 | 41105 ft | 427 kts | 20° |
| 2026-04-26 21:05 | 36.89486 | -77.67516 | 41116 ft | 427 kts | 20° |
| 2026-04-26 21:06 | 36.94889 | -77.64384 | 41116 ft | 428 kts | 20° |
| 2026-04-26 21:06 | 37.00275 | -77.61260 | 41112 ft | 429 kts | 20° |
| 2026-04-26 21:07 | 37.05696 | -77.58109 | 40668 ft | 429 kts | 20° |
| 2026-04-26 21:07 | 37.08379 | -77.56548 | 40188 ft | 421 kts | 21° |
| 2026-04-26 21:07 | 37.11011 | -77.55017 | 39717 ft | 413 kts | 21° |
| 2026-04-26 21:07 | 37.13618 | -77.53496 | 39174 ft | 402 kts | 21° |
| 2026-04-26 21:08 | 37.16082 | -77.52055 | 38644 ft | 382 kts | 21° |
| 2026-04-26 21:08 | 37.18409 | -77.50697 | 38117 ft | 364 kts | 21° |
| 2026-04-26 21:08 | 37.20667 | -77.49379 | 37576 ft | 348 kts | 21° |
| 2026-04-26 21:08 | 37.22818 | -77.48121 | 36966 ft | 335 kts | 21° |
| 2026-04-26 21:09 | 37.24886 | -77.46914 | 36371 ft | 323 kts | 20° |
| 2026-04-26 21:09 | 37.26887 | -77.45744 | 35897 ft | 313 kts | 21° |
| 2026-04-26 21:09 | 37.28818 | -77.44611 | 35462 ft | 304 kts | 21° |
| 2026-04-26 21:09 | 37.30711 | -77.43505 | 35023 ft | 296 kts | 21° |
| 2026-04-26 21:10 | 37.32538 | -77.42435 | 34588 ft | 289 kts | 21° |
| 2026-04-26 21:10 | 37.34353 | -77.41373 | 34081 ft | 283 kts | 21° |
| 2026-04-26 21:10 | 37.36111 | -77.40339 | 33563 ft | 277 kts | 21° |
| 2026-04-26 21:10 | 37.37822 | -77.39335 | 33025 ft | 274 kts | 21° |
| 2026-04-26 21:11 | 37.39549 | -77.38319 | 32382 ft | 275 kts | 21° |
| 2026-04-26 21:11 | 37.41274 | -77.37306 | 31745 ft | 274 kts | 21° |
| 2026-04-26 21:11 | 37.43002 | -77.36292 | 31100 ft | 272 kts | 21° |
| 2026-04-26 21:11 | 37.44686 | -77.35299 | 30466 ft | 270 kts | 21° |
| 2026-04-26 21:12 | 37.46384 | -77.34302 | 29807 ft | 268 kts | 22° |
| 2026-04-26 21:12 | 37.48052 | -77.33321 | 29194 ft | 264 kts | 22° |
| 2026-04-26 21:12 | 37.49699 | -77.32351 | 28757 ft | 254 kts | 22° |
| 2026-04-26 21:12 | 37.51130 | -77.31145 | 28465 ft | 243 kts | 37° |
| 2026-04-26 21:13 | 37.52408 | -77.29827 | 28173 ft | 231 kts | 35° |
| 2026-04-26 21:13 | 37.53628 | -77.28604 | 27885 ft | 221 kts | 35° |
| 2026-04-26 21:13 | 37.54830 | -77.27393 | 27616 ft | 223 kts | 35° |
| 2026-04-26 21:13 | 37.56075 | -77.26144 | 27405 ft | 235 kts | 35° |
| 2026-04-26 21:14 | 37.57394 | -77.24814 | 27215 ft | 255 kts | 36° |
| 2026-04-26 21:14 | 37.58843 | -77.23352 | 27004 ft | 275 kts | 36° |
| 2026-04-26 21:14 | 37.60387 | -77.21788 | 26758 ft | 291 kts | 36° |
| 2026-04-26 21:14 | 37.61988 | -77.20169 | 26500 ft | 304 kts | 36° |
| 2026-04-26 21:15 | 37.63676 | -77.18456 | 26235 ft | 316 kts | 36° |
| 2026-04-26 21:15 | 37.65420 | -77.16687 | 25970 ft | 327 kts | 36° |
| 2026-04-26 21:15 | 37.67202 | -77.14844 | 25712 ft | 336 kts | 37° |
| 2026-04-26 21:15 | 37.69020 | -77.12927 | 25414 ft | 345 kts | 38° |
| 2026-04-26 21:16 | 37.70890 | -77.10955 | 25027 ft | 355 kts | 38° |
| 2026-04-26 21:16 | 37.72783 | -77.08952 | 24630 ft | 363 kts | 38° |
| 2026-04-26 21:16 | 37.74749 | -77.06870 | 24219 ft | 370 kts | 38° |
| 2026-04-26 21:16 | 37.76728 | -77.04771 | 23801 ft | 375 kts | 38° |
| 2026-04-26 21:17 | 37.78728 | -77.02647 | 23373 ft | 379 kts | 38° |
| 2026-04-26 21:17 | 37.80743 | -77.00510 | 22942 ft | 381 kts | 38° |
| 2026-04-26 21:17 | 37.82790 | -76.98333 | 22509 ft | 383 kts | 38° |
| 2026-04-26 21:17 | 37.84835 | -76.96159 | 22078 ft | 384 kts | 38° |
| 2026-04-26 21:18 | 37.86867 | -76.93998 | 21653 ft | 384 kts | 38° |
| 2026-04-26 21:18 | 37.88913 | -76.91821 | 21227 ft | 384 kts | 38° |
| 2026-04-26 21:18 | 37.90950 | -76.89650 | 20803 ft | 383 kts | 38° |
| 2026-04-26 21:18 | 37.92983 | -76.87482 | 20382 ft | 382 kts | 38° |
| 2026-04-26 21:19 | 37.94986 | -76.85341 | 19967 ft | 380 kts | 37° |
| 2026-04-26 21:19 | 37.97009 | -76.83180 | 19550 ft | 378 kts | 37° |
| 2026-04-26 21:19 | 37.99001 | -76.81055 | 19139 ft | 376 kts | 37° |
| 2026-04-26 21:19 | 38.00999 | -76.78918 | 18726 ft | 374 kts | 37° |
| 2026-04-26 21:20 | 38.02986 | -76.76792 | 18314 ft | 371 kts | 37° |
| 2026-04-26 21:20 | 38.04956 | -76.74684 | 17905 ft | 369 kts | 37° |
| 2026-04-26 21:20 | 38.06926 | -76.72577 | 17418 ft | 368 kts | 37° |
| 2026-04-26 21:20 | 38.08869 | -76.70550 | 17321 ft | 354 kts | 31° |
| 2026-04-26 21:21 | 38.11077 | -76.69202 | 16963 ft | 349 kts | 22° |
| 2026-04-26 21:21 | 38.13252 | -76.67879 | 16630 ft | 347 kts | 22° |
| 2026-04-26 21:21 | 38.15440 | -76.66603 | 16290 ft | 344 kts | 23° |
| 2026-04-26 21:21 | 38.17654 | -76.65439 | 15927 ft | 341 kts | 13° |
| 2026-04-26 21:22 | 38.19955 | -76.64774 | 15606 ft | 337 kts | 12° |
| 2026-04-26 21:22 | 38.22224 | -76.64226 | 15272 ft | 335 kts | 8° |
| 2026-04-26 21:22 | 38.24534 | -76.63762 | 14947 ft | 332 kts | 7° |
| 2026-04-26 21:23 | 38.29077 | -76.62942 | 14217 ft | 330 kts | 7° |
| 2026-04-26 21:23 | 38.31359 | -76.62543 | 13854 ft | 328 kts | 7° |
| 2026-04-26 21:23 | 38.33611 | -76.62151 | 13504 ft | 327 kts | 7° |
| 2026-04-26 21:23 | 38.35854 | -76.61761 | 13147 ft | 325 kts | 7° |
| 2026-04-26 21:24 | 38.38102 | -76.61369 | 12787 ft | 323 kts | 7° |
| 2026-04-26 21:24 | 38.40306 | -76.60987 | 12437 ft | 322 kts | 7° |
| 2026-04-26 21:24 | 38.42519 | -76.60602 | 12085 ft | 320 kts | 7° |
| 2026-04-26 21:24 | 38.44724 | -76.60218 | 11734 ft | 318 kts | 7° |
| 2026-04-26 21:25 | 38.46930 | -76.59835 | 11382 ft | 316 kts | 7° |
| 2026-04-26 21:25 | 38.49088 | -76.59460 | 11039 ft | 314 kts | 7° |
| 2026-04-26 21:25 | 38.51250 | -76.59082 | 10692 ft | 312 kts | 7° |
| 2026-04-26 21:25 | 38.53387 | -76.58710 | 10353 ft | 310 kts | 7° |
| 2026-04-26 21:26 | 38.55493 | -76.58343 | 10018 ft | 308 kts | 7° |
| 2026-04-26 21:26 | 38.57602 | -76.57976 | 9682 ft | 306 kts | 7° |
| 2026-04-26 21:26 | 38.59707 | -76.57610 | 9353 ft | 304 kts | 7° |
| 2026-04-26 21:26 | 38.61688 | -76.57265 | 9042 ft | 302 kts | 7° |
| 2026-04-26 21:27 | 38.63770 | -76.56902 | 8709 ft | 299 kts | 8° |
| 2026-04-26 21:27 | 38.65807 | -76.56546 | 8382 ft | 288 kts | 8° |
| 2026-04-26 21:27 | 38.67742 | -76.56209 | 8069 ft | 270 kts | 8° |
| 2026-04-26 21:27 | 38.69546 | -76.55893 | 7793 ft | 254 kts | 8° |
| 2026-04-26 21:28 | 38.69812 | -76.55846 | 7752 ft | 252 kts | 8° |
| 2026-04-26 21:28 | 38.71265 | -76.55588 | 7530 ft | 241 kts | 8° |
| 2026-04-26 21:28 | 38.72887 | -76.55305 | 7282 ft | 229 kts | 9° |
| 2026-04-26 21:28 | 38.74432 | -76.55033 | 7051 ft | 220 kts | 9° |
| 2026-04-26 21:29 | 38.75957 | -76.54765 | 6825 ft | 221 kts | 9° |
| 2026-04-26 21:29 | 38.77487 | -76.54497 | 6591 ft | 222 kts | 9° |
| 2026-04-26 21:29 | 38.79025 | -76.54227 | 6349 ft | 223 kts | 9° |
| 2026-04-26 21:29 | 38.80563 | -76.53956 | 6102 ft | 224 kts | 9° |
| 2026-04-26 21:30 | 38.82131 | -76.53680 | 5849 ft | 225 kts | 9° |
| 2026-04-26 21:30 | 38.83677 | -76.53409 | 5601 ft | 226 kts | 9° |
| 2026-04-26 21:30 | 38.85239 | -76.53133 | 5349 ft | 226 kts | 9° |
| 2026-04-26 21:30 | 38.86811 | -76.52856 | 5101 ft | 226 kts | 9° |
| 2026-04-26 21:31 | 38.88367 | -76.52583 | 4852 ft | 226 kts | 9° |
| 2026-04-26 21:31 | 38.89931 | -76.52308 | 4606 ft | 226 kts | 9° |
| 2026-04-26 21:31 | 38.91479 | -76.52036 | 4360 ft | 226 kts | 9° |
| 2026-04-26 21:31 | 38.93042 | -76.51761 | 4105 ft | 225 kts | 9° |
| 2026-04-26 21:32 | 38.94589 | -76.51488 | 3857 ft | 224 kts | 9° |
| 2026-04-26 21:32 | 38.96134 | -76.51215 | 3608 ft | 224 kts | 9° |
| 2026-04-26 21:32 | 38.97695 | -76.50940 | 3365 ft | 223 kts | 9° |
| 2026-04-26 21:32 | 38.99221 | -76.50670 | 3128 ft | 222 kts | 9° |
| 2026-04-26 21:33 | 39.00740 | -76.50420 | 3001 ft | 216 kts | 5° |
| 2026-04-26 21:33 | 39.02150 | -76.50985 | 2998 ft | 213 kts | 328° |
| 2026-04-26 21:33 | 39.03285 | -76.52129 | 2990 ft | 205 kts | 327° |
| 2026-04-26 21:33 | 39.04418 | -76.53198 | 2978 ft | 197 kts | 328° |
| 2026-04-26 21:34 | 39.05514 | -76.54217 | 2983 ft | 189 kts | 328° |
| 2026-04-26 21:34 | 39.06598 | -76.55209 | 2752 ft | 192 kts | 329° |
| 2026-04-26 21:34 | 39.07681 | -76.56200 | 2514 ft | 194 kts | 328° |
| 2026-04-26 21:34 | 39.08780 | -76.57209 | 2262 ft | 194 kts | 328° |
| 2026-04-26 21:35 | 39.09890 | -76.58224 | 2005 ft | 194 kts | 328° |
| 2026-04-26 21:35 | 39.10989 | -76.59228 | 1746 ft | 194 kts | 329° |
| 2026-04-26 21:35 | 39.12036 | -76.60195 | 1478 ft | 174 kts | 329° |
| 2026-04-26 21:35 | 39.12951 | -76.61034 | 1304 ft | 149 kts | 329° |
| 2026-04-26 21:36 | 39.13750 | -76.61768 | 1091 ft | 133 kts | 329° |
| 2026-04-26 21:36 | 39.14472 | -76.62429 | 901 ft | 123 kts | 329° |
| 2026-04-26 21:36 | 39.15149 | -76.63052 | 736 ft | 117 kts | 329° |
| 2026-04-26 21:36 | 39.15817 | -76.63667 | 589 ft | 118 kts | 330° |
| 2026-04-26 21:37 | 39.16502 | -76.64323 | 441 ft | 121 kts | 330° |
| 2026-04-26 21:37 | 39.17186 | -76.64923 | 257 ft | 121 kts | 328° |
| 2026-04-26 21:37 | 39.17867 | -76.65551 | 123 ft | 112 kts | 327° |
| 2026-04-26 21:37 | 39.18439 | -76.66074 | 135 ft | 85 kts | 322° |
| 2026-04-26 21:38 | 39.18686 | -76.66307 | 141 ft | 23 kts | 325° |
| 2026-04-26 21:38 | 39.18755 | -76.66311 | 141 ft | 10 kts | 53° |
| 2026-04-26 21:38 | 39.18769 | -76.66248 | 140 ft | 6 kts | 146° |
| 2026-04-26 21:38 | 39.18706 | -76.66196 | 139 ft | 14 kts | 144° |
| 2026-04-26 21:39 | 39.18613 | -76.66109 | 137 ft | 17 kts | 143° |
| 2026-04-26 21:39 | 39.18508 | -76.66008 | 134 ft | 18 kts | 140° |
| 2026-04-26 21:39 | 39.18522 | -76.65909 | 132 ft | 12 kts | 52° |
| 2026-04-26 21:39 | 39.18578 | -76.65813 | 131 ft | 13 kts | 53° |
| 2026-04-26 21:40 | 39.18623 | -76.65738 | 130 ft | 3 kts | 59° |
| 2026-04-26 21:40 | 39.18619 | -76.65725 | 130 ft | 0 kts | 143° |